WXM80 ListenWXM80 Stop

You find our weather info also at:

UK Metoffice

WeatherCloud

Weather Underground

Northeastern Weather Network

AWEKAS

Citizen Weather Observer Program (CWOP)

HAMweather, WeatherForYou, PWS Weather


Weather Underground History page Text

Daily Summary for August 23, 2017 Units:  Both    English   Metric
« Previous Day
Next Day »
Daily Weekly Monthly Yearly Custom
  High: Low: Average:
Temperature: 85.2 °F /  29.6 °C 66.8 °F /  19.3 °C 76.3 °F /  24.6 °C
Dew Point: 73.8 °F /  23.2 °C 59.6 °F /  15.3 °C 66.6 °F /  19.2 °C
Humidity: 97 % 44 % 75 %
Wind Speed: 7.1 mph /  11.4 km/h - 1.9 mph /  3.1 km/h
Wind Gust: 14.0 mph /  22.5 km/h - -
Wind:- - West
Pressure: 29.82 in /  1009.7 hPa 29.68 in /  1005 hPa -
Precipitation: 0.28 in /  7.11 mm    
Historical Graphs
 
 
Tabular Data for August 23, 2017
Time Temperature Dew Point Pressure Wind Wind Speed Wind Gust Humidity Rainfall Rate (Hourly)
00:04 77.0 °F /  25 °C 73.8 °F /  23.2 °C 29.74 in /  1007 hPa SW 4.6 mph /  7.4 km/h 12.7 mph /  20.4 km/h 90 % 0.00 in /  0 mm
00:09 76.7 °F /  24.8 °C 73.5 °F /  23.1 °C 29.74 in /  1007 hPa WSW 6.5 mph /  10.5 km/h 12.0 mph /  19.3 km/h 90 % 0.02 in /  0.51 mm
00:14 76.3 °F /  24.6 °C 73.1 °F /  22.8 °C 29.75 in /  1007.3 hPa WSW 5.2 mph /  8.4 km/h 14.0 mph /  22.5 km/h 90 % 0.05 in /  1.27 mm
00:19 76.0 °F /  24.4 °C 72.9 °F /  22.7 °C 29.74 in /  1007 hPa WSW 5.4 mph /  8.7 km/h 6.9 mph /  11.1 km/h 90 % 0.07 in /  1.78 mm
00:24 75.7 °F /  24.3 °C 72.9 °F /  22.7 °C 29.74 in /  1007 hPa SSW 6.0 mph /  9.7 km/h 10.4 mph /  16.7 km/h 91 % 0.09 in /  2.29 mm
00:29 75.5 °F /  24.2 °C 72.4 °F /  22.4 °C 29.74 in /  1007 hPa SW 5.6 mph /  9 km/h 12.0 mph /  19.3 km/h 90 % 0.11 in /  2.79 mm
00:34 75.1 °F /  23.9 °C 72.3 °F /  22.4 °C 29.73 in /  1006.7 hPa SW 4.1 mph /  6.6 km/h 9.2 mph /  14.8 km/h 91 % 0.11 in /  2.79 mm
00:39 74.8 °F /  23.8 °C 72.0 °F /  22.2 °C 29.73 in /  1006.7 hPa SW 7.1 mph /  11.4 km/h 13.8 mph /  22.2 km/h 91 % 0.11 in /  2.79 mm
00:44 74.5 °F /  23.6 °C 72.0 °F /  22.2 °C 29.74 in /  1007 hPa South 5.5 mph /  8.9 km/h 10.4 mph /  16.7 km/h 92 % 0.11 in /  2.79 mm
00:49 74.3 °F /  23.5 °C 71.8 °F /  22.1 °C 29.74 in /  1007 hPa West 1.2 mph /  1.9 km/h 8.1 mph /  13 km/h 92 % 0.11 in /  2.79 mm
00:54 74.1 °F /  23.4 °C 71.6 °F /  22 °C 29.73 in /  1006.7 hPa SW 2.7 mph /  4.3 km/h 4.6 mph /  7.4 km/h 92 % 0.13 in /  3.3 mm
00:59 74.0 °F /  23.3 °C 71.5 °F /  21.9 °C 29.73 in /  1006.7 hPa SW 2.7 mph /  4.3 km/h 9.2 mph /  14.8 km/h 92 % 0.13 in /  3.3 mm
01:04 73.9 °F /  23.3 °C 71.7 °F /  22.1 °C 29.73 in /  1006.7 hPa SSW 1.5 mph /  2.4 km/h 5.0 mph /  8 km/h 93 % 0.20 in /  5.08 mm
01:09 73.7 °F /  23.2 °C 71.5 °F /  21.9 °C 29.73 in /  1006.7 hPa SSW 3.1 mph /  5 km/h 4.6 mph /  7.4 km/h 93 % 0.19 in /  4.83 mm
01:14 73.6 °F /  23.1 °C 71.4 °F /  21.9 °C 29.73 in /  1006.7 hPa WSW 3.1 mph /  5 km/h 5.0 mph /  8 km/h 93 % 0.19 in /  4.83 mm
01:19 73.5 °F /  23.1 °C 71.7 °F /  22.1 °C 29.72 in /  1006.3 hPa WSW 1.6 mph /  2.6 km/h 6.9 mph /  11.1 km/h 94 % 0.17 in /  4.32 mm
01:24 73.5 °F /  23.1 °C 71.7 °F /  22.1 °C 29.72 in /  1006.3 hPa SW 3.2 mph /  5.1 km/h 5.8 mph /  9.3 km/h 94 % 0.17 in /  4.32 mm
01:29 73.4 °F /  23 °C 71.6 °F /  22 °C 29.71 in /  1006 hPa SW 0.2 mph /  0.3 km/h 1.2 mph /  1.9 km/h 94 % 0.15 in /  3.81 mm
01:31 73.4 °F /  23 °C 71.6 °F /  22 °C 29.71 in /  1006 hPa SSW 2.3 mph /  3.7 km/h 5.8 mph /  9.3 km/h 94 % 0.14 in /  3.56 mm
01:36 73.3 °F /  22.9 °C 71.5 °F /  21.9 °C 29.70 in /  1005.6 hPa SW 0.3 mph /  0.5 km/h 1.2 mph /  1.9 km/h 94 % 0.13 in /  3.3 mm
01:41 73.2 °F /  22.9 °C 71.4 °F /  21.9 °C 29.70 in /  1005.6 hPa SW 0.2 mph /  0.3 km/h 2.3 mph /  3.7 km/h 94 % 0.12 in /  3.05 mm
01:46 73.1 °F /  22.8 °C 71.3 °F /  21.8 °C 29.70 in /  1005.6 hPa WSW 0.9 mph /  1.4 km/h 3.5 mph /  5.6 km/h 94 % 0.12 in /  3.05 mm
01:51 73.1 °F /  22.8 °C 71.3 °F /  21.8 °C 29.70 in /  1005.6 hPa Calm     94 % 0.10 in /  2.54 mm
01:56 73.0 °F /  22.8 °C 71.2 °F /  21.8 °C 29.70 in /  1005.6 hPa Calm     94 % 0.09 in /  2.29 mm
02:00 73.0 °F /  22.8 °C 71.2 °F /  21.8 °C 29.70 in /  1005.6 hPa Calm     94 % 0.07 in /  1.78 mm
02:05 72.9 °F /  22.7 °C 71.1 °F /  21.7 °C 29.70 in /  1005.6 hPa Calm   1.2 mph /  1.9 km/h 94 % 0.05 in /  1.27 mm
02:10 72.9 °F /  22.7 °C 71.1 °F /  21.7 °C 29.70 in /  1005.6 hPa Calm     94 % 0.04 in /  1.02 mm
02:15 72.8 °F /  22.7 °C 71.0 °F /  21.7 °C 29.69 in /  1005.3 hPa WSW 0.2 mph /  0.3 km/h 1.2 mph /  1.9 km/h 94 % 0.03 in /  0.76 mm
02:20 72.8 °F /  22.7 °C 71.0 °F /  21.7 °C 29.69 in /  1005.3 hPa SW 2.3 mph /  3.7 km/h 3.5 mph /  5.6 km/h 94 % 0.02 in /  0.51 mm
02:25 72.8 °F /  22.7 °C 71.3 °F /  21.8 °C 29.69 in /  1005.3 hPa Calm     95 % 0.01 in /  0.25 mm
02:30 72.7 °F /  22.6 °C 71.2 °F /  21.8 °C 29.69 in /  1005.3 hPa SW 0.2 mph /  0.3 km/h 1.2 mph /  1.9 km/h 95 % 0.01 in /  0.25 mm
02:35 72.7 °F /  22.6 °C 71.2 °F /  21.8 °C 29.68 in /  1005 hPa SW 2.9 mph /  4.7 km/h 6.0 mph /  9.7 km/h 95 % 0.01 in /  0.25 mm
02:40 72.7 °F /  22.6 °C 71.2 °F /  21.8 °C 29.68 in /  1005 hPa SW 1.8 mph /  2.9 km/h 6.9 mph /  11.1 km/h 95 % 0.01 in /  0.25 mm
02:45 72.7 °F /  22.6 °C 71.2 °F /  21.8 °C 29.69 in /  1005.3 hPa SW 2.1 mph /  3.4 km/h 10.4 mph /  16.7 km/h 95 % 0.00 in /  0 mm
02:48 72.6 °F /  22.6 °C 71.1 °F /  21.7 °C 29.69 in /  1005.3 hPa WSW 3.4 mph /  5.5 km/h 6.9 mph /  11.1 km/h 95 % 0.00 in /  0 mm
02:53 72.6 °F /  22.6 °C 71.1 °F /  21.7 °C 29.69 in /  1005.3 hPa SSW 3.4 mph /  5.5 km/h 5.0 mph /  8 km/h 95 % 0.00 in /  0 mm
02:58 72.6 °F /  22.6 °C 71.1 °F /  21.7 °C 29.69 in /  1005.3 hPa SSW 1.9 mph /  3.1 km/h 4.6 mph /  7.4 km/h 95 % 0.00 in /  0 mm
03:03 72.7 °F /  22.6 °C 71.2 °F /  21.8 °C 29.69 in /  1005.3 hPa WSW 1.7 mph /  2.7 km/h 3.5 mph /  5.6 km/h 95 % 0.00 in /  0 mm
03:08 72.7 °F /  22.6 °C 71.5 °F /  21.9 °C 29.69 in /  1005.3 hPa SW 2.6 mph /  4.2 km/h 6.9 mph /  11.1 km/h 96 % 0.00 in /  0 mm
03:13 72.7 °F /  22.6 °C 71.5 °F /  21.9 °C 29.69 in /  1005.3 hPa SSW 0.3 mph /  0.5 km/h 6.9 mph /  11.1 km/h 96 % 0.00 in /  0 mm
03:18 72.8 °F /  22.7 °C 71.6 °F /  22 °C 29.68 in /  1005 hPa SW 2.9 mph /  4.7 km/h 5.8 mph /  9.3 km/h 96 % 0.00 in /  0 mm
03:23 72.8 °F /  22.7 °C 71.6 °F /  22 °C 29.68 in /  1005 hPa SSW 2.7 mph /  4.3 km/h 6.0 mph /  9.7 km/h 96 % 0.00 in /  0 mm
03:28 72.8 °F /  22.7 °C 71.6 °F /  22 °C 29.68 in /  1005 hPa SW 5.3 mph /  8.5 km/h 8.1 mph /  13 km/h 96 % 0.00 in /  0 mm
03:33 72.8 °F /  22.7 °C 71.6 °F /  22 °C 29.68 in /  1005 hPa WSW 0.6 mph /  1 km/h 2.3 mph /  3.7 km/h 96 % 0.00 in /  0 mm
03:38 72.8 °F /  22.7 °C 71.6 °F /  22 °C 29.69 in /  1005.3 hPa SW 3.2 mph /  5.1 km/h 3.5 mph /  5.6 km/h 96 % 0.00 in /  0 mm
03:43 72.8 °F /  22.7 °C 71.6 °F /  22 °C 29.69 in /  1005.3 hPa WSW 3.9 mph /  6.3 km/h 4.6 mph /  7.4 km/h 96 % 0.00 in /  0 mm
03:48 72.9 °F /  22.7 °C 71.7 °F /  22.1 °C 29.68 in /  1005 hPa SW 2.5 mph /  4 km/h 6.9 mph /  11.1 km/h 96 % 0.00 in /  0 mm
03:53 72.9 °F /  22.7 °C 71.7 °F /  22.1 °C 29.68 in /  1005 hPa WSW 0.5 mph /  0.8 km/h 4.0 mph /  6.4 km/h 96 % 0.00 in /  0 mm
03:58 72.9 °F /  22.7 °C 71.7 °F /  22.1 °C 29.68 in /  1005 hPa West 1.5 mph /  2.4 km/h 3.5 mph /  5.6 km/h 96 % 0.00 in /  0 mm
04:04 72.9 °F /  22.7 °C 71.7 °F /  22.1 °C 29.68 in /  1005 hPa WSW 2.5 mph /  4 km/h 6.9 mph /  11.1 km/h 96 % 0.00 in /  0 mm
04:09 72.9 °F /  22.7 °C 71.7 °F /  22.1 °C 29.68 in /  1005 hPa SW 1.0 mph /  1.6 km/h 4.6 mph /  7.4 km/h 96 % 0.00 in /  0 mm
04:14 72.9 °F /  22.7 °C 71.7 °F /  22.1 °C 29.69 in /  1005.3 hPa SSW 0.9 mph /  1.4 km/h 3.5 mph /  5.6 km/h 96 % 0.00 in /  0 mm
04:19 72.9 °F /  22.7 °C 71.7 °F /  22.1 °C 29.69 in /  1005.3 hPa SSW 3.3 mph /  5.3 km/h 3.5 mph /  5.6 km/h 96 % 0.00 in /  0 mm
04:24 72.9 °F /  22.7 °C 71.7 °F /  22.1 °C 29.69 in /  1005.3 hPa SW 2.3 mph /  3.7 km/h 3.5 mph /  5.6 km/h 96 % 0.00 in /  0 mm
04:29 72.9 °F /  22.7 °C 71.7 °F /  22.1 °C 29.69 in /  1005.3 hPa SW 1.2 mph /  1.9 km/h 3.5 mph /  5.6 km/h 96 % 0.00 in /  0 mm
04:34 72.9 °F /  22.7 °C 71.7 °F /  22.1 °C 29.69 in /  1005.3 hPa WSW 0.5 mph /  0.8 km/h 3.5 mph /  5.6 km/h 96 % 0.00 in /  0 mm
04:44 72.9 °F /  22.7 °C 71.7 °F /  22.1 °C 29.69 in /  1005.3 hPa Calm   1.2 mph /  1.9 km/h 96 % 0.00 in /  0 mm
04:49 72.9 °F /  22.7 °C 71.7 °F /  22.1 °C 29.69 in /  1005.3 hPa SW 0.1 mph /  0.2 km/h 1.2 mph /  1.9 km/h 96 % 0.00 in /  0 mm
04:54 72.9 °F /  22.7 °C 71.7 °F /  22.1 °C 29.69 in /  1005.3 hPa Calm     96 % 0.00 in /  0 mm
04:59 72.9 °F /  22.7 °C 71.7 °F /  22.1 °C 29.69 in /  1005.3 hPa WSW 1.3 mph /  2.1 km/h 3.0 mph /  4.8 km/h 96 % 0.01 in /  0.25 mm
05:04 72.9 °F /  22.7 °C 71.7 °F /  22.1 °C 29.69 in /  1005.3 hPa WSW 0.2 mph /  0.3 km/h 1.2 mph /  1.9 km/h 96 % 0.01 in /  0.25 mm
05:09 72.9 °F /  22.7 °C 71.7 °F /  22.1 °C 29.69 in /  1005.3 hPa SW 1.7 mph /  2.7 km/h 5.8 mph /  9.3 km/h 96 % 0.01 in /  0.25 mm
05:14 72.9 °F /  22.7 °C 71.7 °F /  22.1 °C 29.69 in /  1005.3 hPa SW 1.6 mph /  2.6 km/h 3.5 mph /  5.6 km/h 96 % 0.01 in /  0.25 mm
05:19 72.9 °F /  22.7 °C 71.7 °F /  22.1 °C 29.69 in /  1005.3 hPa SSW 1.0 mph /  1.6 km/h 3.5 mph /  5.6 km/h 96 % 0.01 in /  0.25 mm
05:24 72.9 °F /  22.7 °C 71.7 °F /  22.1 °C 29.69 in /  1005.3 hPa WSW 0.8 mph /  1.3 km/h 4.6 mph /  7.4 km/h 96 % 0.01 in /  0.25 mm
05:29 72.9 °F /  22.7 °C 71.7 °F /  22.1 °C 29.69 in /  1005.3 hPa WSW 0.1 mph /  0.2 km/h 2.3 mph /  3.7 km/h 96 % 0.01 in /  0.25 mm
05:34 72.9 °F /  22.7 °C 71.7 °F /  22.1 °C 29.69 in /  1005.3 hPa SW 2.1 mph /  3.4 km/h 3.5 mph /  5.6 km/h 96 % 0.01 in /  0.25 mm
05:39 72.9 °F /  22.7 °C 71.7 °F /  22.1 °C 29.69 in /  1005.3 hPa SSW 1.3 mph /  2.1 km/h 3.5 mph /  5.6 km/h 96 % 0.01 in /  0.25 mm
05:44 72.9 °F /  22.7 °C 71.7 °F /  22.1 °C 29.69 in /  1005.3 hPa SW 1.1 mph /  1.8 km/h 2.3 mph /  3.7 km/h 96 % 0.01 in /  0.25 mm
05:49 72.9 °F /  22.7 °C 71.7 °F /  22.1 °C 29.69 in /  1005.3 hPa WSW 2.9 mph /  4.7 km/h 3.5 mph /  5.6 km/h 96 % 0.01 in /  0.25 mm
05:55 72.9 °F /  22.7 °C 71.7 °F /  22.1 °C 29.69 in /  1005.3 hPa WSW 1.4 mph /  2.3 km/h 3.5 mph /  5.6 km/h 96 % 0.01 in /  0.25 mm
05:59 72.9 °F /  22.7 °C 71.7 °F /  22.1 °C 29.70 in /  1005.6 hPa Calm   3.5 mph /  5.6 km/h 96 % 0.00 in /  0 mm
06:02 72.9 °F /  22.7 °C 71.7 °F /  22.1 °C 29.70 in /  1005.6 hPa WSW 1.4 mph /  2.3 km/h 5.0 mph /  8 km/h 96 % 0.00 in /  0 mm
06:07 73.0 °F /  22.8 °C 71.8 °F /  22.1 °C 29.69 in /  1005.3 hPa WSW 1.2 mph /  1.9 km/h 3.5 mph /  5.6 km/h 96 % 0.00 in /  0 mm
06:12 72.9 °F /  22.7 °C 71.7 °F /  22.1 °C 29.69 in /  1005.3 hPa SW 0.7 mph /  1.1 km/h 3.5 mph /  5.6 km/h 96 % 0.00 in /  0 mm
06:17 73.0 °F /  22.8 °C 72.1 °F /  22.3 °C 29.70 in /  1005.6 hPa WSW 1.6 mph /  2.6 km/h 3.5 mph /  5.6 km/h 97 % 0.00 in /  0 mm
06:22 73.0 °F /  22.8 °C 71.8 °F /  22.1 °C 29.70 in /  1005.6 hPa West 1.0 mph /  1.6 km/h 5.8 mph /  9.3 km/h 96 % 0.00 in /  0 mm
06:27 73.0 °F /  22.8 °C 72.1 °F /  22.3 °C 29.70 in /  1005.6 hPa WSW 0.4 mph /  0.6 km/h 2.3 mph /  3.7 km/h 97 % 0.00 in /  0 mm
06:32 73.0 °F /  22.8 °C 72.1 °F /  22.3 °C 29.71 in /  1006 hPa SSW 1.5 mph /  2.4 km/h 3.5 mph /  5.6 km/h 97 % 0.00 in /  0 mm
06:37 73.0 °F /  22.8 °C 72.1 °F /  22.3 °C 29.71 in /  1006 hPa SW 2.9 mph /  4.7 km/h 5.8 mph /  9.3 km/h 97 % 0.00 in /  0 mm
06:42 73.0 °F /  22.8 °C 72.1 °F /  22.3 °C 29.71 in /  1006 hPa WSW 2.2 mph /  3.5 km/h 4.6 mph /  7.4 km/h 97 % 0.00 in /  0 mm
06:47 73.1 °F /  22.8 °C 72.2 °F /  22.3 °C 29.71 in /  1006 hPa WSW 0.3 mph /  0.5 km/h 3.5 mph /  5.6 km/h 97 % 0.00 in /  0 mm
06:52 73.1 °F /  22.8 °C 72.2 °F /  22.3 °C 29.71 in /  1006 hPa West 2.1 mph /  3.4 km/h 4.6 mph /  7.4 km/h 97 % 0.00 in /  0 mm
06:57 73.1 °F /  22.8 °C 72.2 °F /  22.3 °C 29.71 in /  1006 hPa West 1.1 mph /  1.8 km/h 3.5 mph /  5.6 km/h 97 % 0.00 in /  0 mm
07:02 73.2 °F /  22.9 °C 72.3 °F /  22.4 °C 29.71 in /  1006 hPa WSW 0.6 mph /  1 km/h 3.5 mph /  5.6 km/h 97 % 0.00 in /  0 mm
07:08 73.2 °F /  22.9 °C 72.3 °F /  22.4 °C 29.71 in /  1006 hPa West 1.2 mph /  1.9 km/h 5.0 mph /  8 km/h 97 % 0.00 in /  0 mm
07:13 73.3 °F /  22.9 °C 72.4 °F /  22.4 °C 29.71 in /  1006 hPa SW 0.2 mph /  0.3 km/h 3.5 mph /  5.6 km/h 97 % 0.00 in /  0 mm
07:18 73.3 °F /  22.9 °C 72.4 °F /  22.4 °C 29.71 in /  1006 hPa SW 0.7 mph /  1.1 km/h 3.0 mph /  4.8 km/h 97 % 0.00 in /  0 mm
07:23 73.4 °F /  23 °C 72.5 °F /  22.5 °C 29.71 in /  1006 hPa WNW 0.5 mph /  0.8 km/h 1.2 mph /  1.9 km/h 97 % 0.00 in /  0 mm
07:28 73.5 °F /  23.1 °C 72.6 °F /  22.6 °C 29.72 in /  1006.3 hPa SSW 1.8 mph /  2.9 km/h 3.5 mph /  5.6 km/h 97 % 0.00 in /  0 mm
07:33 73.6 °F /  23.1 °C 72.7 °F /  22.6 °C 29.72 in /  1006.3 hPa West 3.8 mph /  6.1 km/h 8.1 mph /  13 km/h 97 % 0.00 in /  0 mm
07:38 73.6 °F /  23.1 °C 72.7 °F /  22.6 °C 29.72 in /  1006.3 hPa SW 3.1 mph /  5 km/h 6.9 mph /  11.1 km/h 97 % 0.00 in /  0 mm
07:41 73.6 °F /  23.1 °C 72.7 °F /  22.6 °C 29.72 in /  1006.3 hPa SW 0.2 mph /  0.3 km/h 3.5 mph /  5.6 km/h 97 % 0.00 in /  0 mm
07:46 73.6 °F /  23.1 °C 72.7 °F /  22.6 °C 29.72 in /  1006.3 hPa SW 1.7 mph /  2.7 km/h 4.0 mph /  6.4 km/h 97 % 0.00 in /  0 mm
07:51 73.6 °F /  23.1 °C 72.7 °F /  22.6 °C 29.72 in /  1006.3 hPa WNW 3.1 mph /  5 km/h 6.9 mph /  11.1 km/h 97 % 0.00 in /  0 mm
07:54 73.6 °F /  23.1 °C 72.7 °F /  22.6 °C 29.73 in /  1006.7 hPa West 3.9 mph /  6.3 km/h 8.1 mph /  13 km/h 97 % 0.00 in /  0 mm
07:59 73.6 °F /  23.1 °C 72.7 °F /  22.6 °C 29.73 in /  1006.7 hPa WSW 2.3 mph /  3.7 km/h 3.5 mph /  5.6 km/h 97 % 0.00 in /  0 mm
08:04 73.6 °F /  23.1 °C 72.7 °F /  22.6 °C 29.73 in /  1006.7 hPa WSW 3.4 mph /  5.5 km/h 8.1 mph /  13 km/h 97 % 0.00 in /  0 mm
08:09 73.6 °F /  23.1 °C 72.4 °F /  22.4 °C 29.73 in /  1006.7 hPa NW 1.0 mph /  1.6 km/h 2.3 mph /  3.7 km/h 96 % 0.00 in /  0 mm
08:14 73.5 °F /  23.1 °C 72.3 °F /  22.4 °C 29.73 in /  1006.7 hPa SW 2.1 mph /  3.4 km/h 5.0 mph /  8 km/h 96 % 0.00 in /  0 mm
08:19 73.6 °F /  23.1 °C 72.4 °F /  22.4 °C 29.73 in /  1006.7 hPa SW 3.8 mph /  6.1 km/h 6.9 mph /  11.1 km/h 96 % 0.00 in /  0 mm
08:24 73.6 °F /  23.1 °C 72.4 °F /  22.4 °C 29.73 in /  1006.7 hPa WSW 2.5 mph /  4 km/h 4.0 mph /  6.4 km/h 96 % 0.00 in /  0 mm
08:29 73.6 °F /  23.1 °C 72.4 °F /  22.4 °C 29.74 in /  1007 hPa WNW 2.1 mph /  3.4 km/h 5.8 mph /  9.3 km/h 96 % 0.00 in /  0 mm
08:34 73.6 °F /  23.1 °C 72.1 °F /  22.3 °C 29.73 in /  1006.7 hPa NW 3.4 mph /  5.5 km/h 6.9 mph /  11.1 km/h 95 % 0.00 in /  0 mm
08:39 73.5 °F /  23.1 °C 72.0 °F /  22.2 °C 29.73 in /  1006.7 hPa WSW 2.9 mph /  4.7 km/h 5.0 mph /  8 km/h 95 % 0.00 in /  0 mm
08:44 73.5 °F /  23.1 °C 71.7 °F /  22.1 °C 29.73 in /  1006.7 hPa NW 1.8 mph /  2.9 km/h 4.0 mph /  6.4 km/h 94 % 0.00 in /  0 mm
08:49 73.6 °F /  23.1 °C 71.8 °F /  22.1 °C 29.73 in /  1006.7 hPa WSW 2.7 mph /  4.3 km/h 5.0 mph /  8 km/h 94 % 0.00 in /  0 mm
08:54 73.6 °F /  23.1 °C 71.4 °F /  21.9 °C 29.74 in /  1007 hPa WSW 4.4 mph /  7.1 km/h 5.8 mph /  9.3 km/h 93 % 0.00 in /  0 mm
08:59 73.6 °F /  23.1 °C 71.4 °F /  21.9 °C 29.74 in /  1007 hPa WSW 3.6 mph /  5.8 km/h 6.0 mph /  9.7 km/h 93 % 0.00 in /  0 mm
09:04 73.6 °F /  23.1 °C 70.8 °F /  21.6 °C 29.74 in /  1007 hPa WNW 3.6 mph /  5.8 km/h 5.8 mph /  9.3 km/h 91 % 0.00 in /  0 mm
09:09 73.6 °F /  23.1 °C 70.8 °F /  21.6 °C 29.74 in /  1007 hPa WSW 5.1 mph /  8.2 km/h 8.0 mph /  12.9 km/h 91 % 0.00 in /  0 mm
09:10 73.6 °F /  23.1 °C 70.8 °F /  21.6 °C 29.74 in /  1007 hPa WSW 5.0 mph /  8 km/h 8.1 mph /  13 km/h 91 % 0.00 in /  0 mm
09:15 73.6 °F /  23.1 °C 70.2 °F /  21.2 °C 29.74 in /  1007 hPa SW 1.6 mph /  2.6 km/h 4.6 mph /  7.4 km/h 89 % 0.00 in /  0 mm
09:20 73.5 °F /  23.1 °C 69.7 °F /  20.9 °C 29.74 in /  1007 hPa WNW 1.2 mph /  1.9 km/h 8.1 mph /  13 km/h 88 % 0.00 in /  0 mm
09:25 73.5 °F /  23.1 °C 69.4 °F /  20.8 °C 29.75 in /  1007.3 hPa WNW 1.4 mph /  2.3 km/h 4.6 mph /  7.4 km/h 87 % 0.00 in /  0 mm
09:30 73.6 °F /  23.1 °C 69.5 °F /  20.8 °C 29.75 in /  1007.3 hPa West 2.2 mph /  3.5 km/h 4.6 mph /  7.4 km/h 87 % 0.00 in /  0 mm
09:35 73.6 °F /  23.1 °C 69.5 °F /  20.8 °C 29.75 in /  1007.3 hPa WNW 3.6 mph /  5.8 km/h 6.9 mph /  11.1 km/h 87 % 0.00 in /  0 mm
09:40 73.7 °F /  23.2 °C 69.6 °F /  20.9 °C 29.75 in /  1007.3 hPa West 2.1 mph /  3.4 km/h 6.0 mph /  9.7 km/h 87 % 0.00 in /  0 mm
09:45 73.8 °F /  23.2 °C 69.7 °F /  20.9 °C 29.76 in /  1007.7 hPa WNW 0.5 mph /  0.8 km/h 4.6 mph /  7.4 km/h 87 % 0.00 in /  0 mm
09:50 73.9 °F /  23.3 °C 69.8 °F /  21 °C 29.76 in /  1007.7 hPa WNW 1.8 mph /  2.9 km/h 6.0 mph /  9.7 km/h 87 % 0.00 in /  0 mm
09:55 74.0 °F /  23.3 °C 69.9 °F /  21.1 °C 29.76 in /  1007.7 hPa West 2.9 mph /  4.7 km/h 6.0 mph /  9.7 km/h 87 % 0.00 in /  0 mm
10:00 74.1 °F /  23.4 °C 69.6 °F /  20.9 °C 29.76 in /  1007.7 hPa West 0.2 mph /  0.3 km/h 3.5 mph /  5.6 km/h 86 % 0.00 in /  0 mm
10:05 74.3 °F /  23.5 °C 69.8 °F /  21 °C 29.76 in /  1007.7 hPa WSW 1.2 mph /  1.9 km/h 3.5 mph /  5.6 km/h 86 % 0.00 in /  0 mm
10:10 74.6 °F /  23.7 °C 70.1 °F /  21.2 °C 29.76 in /  1007.7 hPa West 2.2 mph /  3.5 km/h 3.5 mph /  5.6 km/h 86 % 0.00 in /  0 mm
10:15 74.8 °F /  23.8 °C 70.3 °F /  21.3 °C 29.76 in /  1007.7 hPa NW 2.2 mph /  3.5 km/h 4.6 mph /  7.4 km/h 86 % 0.00 in /  0 mm
10:20 75.2 °F /  24 °C 70.7 °F /  21.5 °C 29.76 in /  1007.7 hPa NW 0.6 mph /  1 km/h 3.0 mph /  4.8 km/h 86 % 0.00 in /  0 mm
10:25 75.6 °F /  24.2 °C 70.4 °F /  21.3 °C 29.77 in /  1008 hPa West 4.1 mph /  6.6 km/h 6.0 mph /  9.7 km/h 84 % 0.00 in /  0 mm
10:30 75.9 °F /  24.4 °C 70.4 °F /  21.3 °C 29.77 in /  1008 hPa West 4.0 mph /  6.4 km/h 5.8 mph /  9.3 km/h 83 % 0.00 in /  0 mm
10:35 76.2 °F /  24.6 °C 70.7 °F /  21.5 °C 29.77 in /  1008 hPa Calm   5.0 mph /  8 km/h 83 % 0.00 in /  0 mm
10:41 76.6 °F /  24.8 °C 70.3 °F /  21.3 °C 29.77 in /  1008 hPa West 3.0 mph /  4.8 km/h 6.0 mph /  9.7 km/h 81 % 0.00 in /  0 mm
10:46 76.9 °F /  24.9 °C 70.7 °F /  21.5 °C 29.77 in /  1008 hPa West 1.0 mph /  1.6 km/h 5.0 mph /  8 km/h 81 % 0.00 in /  0 mm
10:51 77.4 °F /  25.2 °C 70.4 °F /  21.3 °C 29.77 in /  1008 hPa West 3.0 mph /  4.8 km/h 8.0 mph /  12.9 km/h 79 % 0.00 in /  0 mm
10:55 78.0 °F /  25.6 °C 70.9 °F /  21.6 °C 29.77 in /  1008 hPa West 2.0 mph /  3.2 km/h 6.0 mph /  9.7 km/h 79 % 0.00 in /  0 mm
11:00 78.7 °F /  25.9 °C 71.6 °F /  22 °C 29.77 in /  1008 hPa SW 1.7 mph /  2.7 km/h 6.9 mph /  11.1 km/h 79 % 0.00 in /  0 mm
11:05 79.4 °F /  26.3 °C 71.9 °F /  22.2 °C 29.77 in /  1008 hPa West 2.0 mph /  3.2 km/h 7.0 mph /  11.3 km/h 78 % 0.00 in /  0 mm
11:10 80.3 °F /  26.8 °C 73.1 °F /  22.8 °C 29.77 in /  1008 hPa West 1.0 mph /  1.6 km/h 6.0 mph /  9.7 km/h 79 % 0.00 in /  0 mm
11:15 80.9 °F /  27.2 °C 70.6 °F /  21.4 °C 29.77 in /  1008 hPa WNW 3.0 mph /  4.8 km/h 9.0 mph /  14.5 km/h 71 % 0.00 in /  0 mm
11:20 81.4 °F /  27.4 °C 70.7 °F /  21.5 °C 29.77 in /  1008 hPa WSW 5.0 mph /  8 km/h 8.0 mph /  12.9 km/h 70 % 0.00 in /  0 mm
11:25 82.0 °F /  27.8 °C 69.1 °F /  20.6 °C 29.77 in /  1008 hPa SW 4.1 mph /  6.6 km/h 4.6 mph /  7.4 km/h 65 % 0.00 in /  0 mm
11:30 82.3 °F /  27.9 °C 70.7 °F /  21.5 °C 29.77 in /  1008 hPa West 0.2 mph /  0.3 km/h 1.2 mph /  1.9 km/h 68 % 0.00 in /  0 mm
11:35 82.8 °F /  28.2 °C 69.8 °F /  21 °C 29.77 in /  1008 hPa NW 2.0 mph /  3.2 km/h 5.8 mph /  9.3 km/h 65 % 0.00 in /  0 mm
11:40 83.1 °F /  28.4 °C 68.7 °F /  20.4 °C 29.78 in /  1008.4 hPa WNW 4.0 mph /  6.4 km/h 4.0 mph /  6.4 km/h 62 % 0.00 in /  0 mm
11:45 83.1 °F /  28.4 °C 67.3 °F /  19.6 °C 29.78 in /  1008.4 hPa NW 2.1 mph /  3.4 km/h 3.5 mph /  5.6 km/h 59 % 0.00 in /  0 mm
11:50 83.0 °F /  28.3 °C 67.7 °F /  19.8 °C 29.78 in /  1008.4 hPa WNW 1.4 mph /  2.3 km/h 3.5 mph /  5.6 km/h 60 % 0.00 in /  0 mm
11:55 83.0 °F /  28.3 °C 66.7 °F /  19.3 °C 29.77 in /  1008 hPa SSW 3.3 mph /  5.3 km/h 6.9 mph /  11.1 km/h 58 % 0.00 in /  0 mm
12:00 83.0 °F /  28.3 °C 65.7 °F /  18.7 °C 29.77 in /  1008 hPa NW 1.2 mph /  1.9 km/h 5.8 mph /  9.3 km/h 56 % 0.00 in /  0 mm
12:05 83.4 °F /  28.6 °C 67.1 °F /  19.5 °C 29.77 in /  1008 hPa WNW 3.2 mph /  5.1 km/h 8.1 mph /  13 km/h 58 % 0.00 in /  0 mm
12:11 83.5 °F /  28.6 °C 65.1 °F /  18.4 °C 29.77 in /  1008 hPa WSW 2.0 mph /  3.2 km/h 7.0 mph /  11.3 km/h 54 % 0.00 in /  0 mm
12:16 83.8 °F /  28.8 °C 67.0 °F /  19.4 °C 29.77 in /  1008 hPa West 2.0 mph /  3.2 km/h 6.0 mph /  9.7 km/h 57 % 0.00 in /  0 mm
12:21 84.2 °F /  29 °C 66.2 °F /  19 °C 29.77 in /  1008 hPa WNW 3.0 mph /  4.8 km/h 8.0 mph /  12.9 km/h 55 % 0.00 in /  0 mm
12:26 84.3 °F /  29.1 °C 65.8 °F /  18.8 °C 29.77 in /  1008 hPa WNW 2.0 mph /  3.2 km/h 5.0 mph /  8 km/h 54 % 0.00 in /  0 mm
12:31 84.5 °F /  29.2 °C 67.1 °F /  19.5 °C 29.77 in /  1008 hPa Calm   3.0 mph /  4.8 km/h 56 % 0.00 in /  0 mm
12:36 84.7 °F /  29.3 °C 65.7 °F /  18.7 °C 29.77 in /  1008 hPa West 2.0 mph /  3.2 km/h 6.0 mph /  9.7 km/h 53 % 0.00 in /  0 mm
12:41 84.9 °F /  29.4 °C 64.8 °F /  18.2 °C 29.77 in /  1008 hPa West 5.0 mph /  8 km/h 10.0 mph /  16.1 km/h 51 % 0.00 in /  0 mm
12:46 85.1 °F /  29.5 °C 65.5 °F /  18.6 °C 29.77 in /  1008 hPa West 3.0 mph /  4.8 km/h 10.0 mph /  16.1 km/h 52 % 0.00 in /  0 mm
12:51 85.2 °F /  29.6 °C 63.3 °F /  17.4 °C 29.77 in /  1008 hPa WNW 5.0 mph /  8 km/h 7.0 mph /  11.3 km/h 48 % 0.00 in /  0 mm
12:56 85.2 °F /  29.6 °C 65.0 °F /  18.3 °C 29.77 in /  1008 hPa WNW 1.0 mph /  1.6 km/h 6.0 mph /  9.7 km/h 51 % 0.00 in /  0 mm
13:01 85.2 °F /  29.6 °C 62.7 °F /  17.1 °C 29.77 in /  1008 hPa WNW 4.1 mph /  6.6 km/h 6.9 mph /  11.1 km/h 47 % 0.00 in /  0 mm
13:06 85.2 °F /  29.6 °C 66.1 °F /  18.9 °C 29.77 in /  1008 hPa WNW 1.2 mph /  1.9 km/h 6.0 mph /  9.7 km/h 53 % 0.00 in /  0 mm
13:11 85.1 °F /  29.5 °C 62.6 °F /  17 °C 29.77 in /  1008 hPa WNW 4.2 mph /  6.8 km/h 9.2 mph /  14.8 km/h 47 % 0.00 in /  0 mm
13:16 85.1 °F /  29.5 °C 63.8 °F /  17.7 °C 29.77 in /  1008 hPa West 5.0 mph /  8 km/h 7.0 mph /  11.3 km/h 49 % 0.00 in /  0 mm
13:21 84.9 °F /  29.4 °C 63.0 °F /  17.2 °C 29.77 in /  1008 hPa WNW 3.1 mph /  5 km/h 7.0 mph /  11.3 km/h 48 % 0.00 in /  0 mm
13:26 84.8 °F /  29.3 °C 65.2 °F /  18.4 °C 29.77 in /  1008 hPa WNW 0.5 mph /  0.8 km/h 2.3 mph /  3.7 km/h 52 % 0.00 in /  0 mm
13:27 84.7 °F /  29.3 °C 62.2 °F /  16.8 °C 29.78 in /  1008.4 hPa SW 3.1 mph /  5 km/h 8.0 mph /  12.9 km/h 47 % 0.00 in /  0 mm
13:32 84.7 °F /  29.3 °C 62.8 °F /  17.1 °C 29.77 in /  1008 hPa NNW 3.7 mph /  6 km/h 3.7 mph /  6 km/h 48 % 0.00 in /  0 mm
13:37 84.6 °F /  29.2 °C 62.7 °F /  17.1 °C 29.78 in /  1008.4 hPa NNW 2.9 mph /  4.7 km/h 8.1 mph /  13 km/h 48 % 0.00 in /  0 mm
13:42 84.5 °F /  29.2 °C 62.7 °F /  17.1 °C 29.77 in /  1008 hPa WNW 3.7 mph /  6 km/h 7.0 mph /  11.3 km/h 48 % 0.00 in /  0 mm
13:45 84.5 °F /  29.2 °C 62.7 °F /  17.1 °C 29.77 in /  1008 hPa West 3.4 mph /  5.5 km/h 5.8 mph /  9.3 km/h 48 % 0.00 in /  0 mm
13:50 84.4 °F /  29.1 °C 64.3 °F /  17.9 °C 29.78 in /  1008.4 hPa NW 0.5 mph /  0.8 km/h 2.0 mph /  3.2 km/h 51 % 0.00 in /  0 mm
13:55 84.4 °F /  29.1 °C 62.6 °F /  17 °C 29.78 in /  1008.4 hPa WSW 3.0 mph /  4.8 km/h 6.9 mph /  11.1 km/h 48 % 0.00 in /  0 mm
14:00 84.2 °F /  29 °C 61.8 °F /  16.6 °C 29.78 in /  1008.4 hPa WSW 0.8 mph /  1.3 km/h 5.8 mph /  9.3 km/h 47 % 0.00 in /  0 mm
14:05 84.1 °F /  28.9 °C 61.1 °F /  16.2 °C 29.77 in /  1008 hPa WNW 4.0 mph /  6.4 km/h 8.1 mph /  13 km/h 46 % 0.00 in /  0 mm
14:10 83.9 °F /  28.8 °C 60.9 °F /  16.1 °C 29.77 in /  1008 hPa NNW 1.4 mph /  2.3 km/h 5.8 mph /  9.3 km/h 46 % 0.00 in /  0 mm
14:15 83.8 °F /  28.8 °C 59.6 °F /  15.3 °C 29.77 in /  1008 hPa NW 6.0 mph /  9.7 km/h 11.5 mph /  18.5 km/h 44 % 0.00 in /  0 mm
14:20 83.7 °F /  28.7 °C 62.5 °F /  16.9 °C 29.77 in /  1008 hPa NW 5.7 mph /  9.2 km/h 9.2 mph /  14.8 km/h 49 % 0.00 in /  0 mm
14:25 83.6 °F /  28.7 °C 60.6 °F /  15.9 °C 29.77 in /  1008 hPa WSW 4.9 mph /  7.9 km/h 6.9 mph /  11.1 km/h 46 % 0.00 in /  0 mm
14:30 83.5 °F /  28.6 °C 61.7 °F /  16.5 °C 29.77 in /  1008 hPa WNW 2.2 mph /  3.5 km/h 12.7 mph /  20.4 km/h 48 % 0.00 in /  0 mm
14:36 83.4 °F /  28.6 °C 60.4 °F /  15.8 °C 29.77 in /  1008 hPa WNW 1.9 mph /  3.1 km/h 5.8 mph /  9.3 km/h 46 % 0.00 in /  0 mm
14:41 83.3 °F /  28.5 °C 59.7 °F /  15.4 °C 29.77 in /  1008 hPa NW 5.4 mph /  8.7 km/h 9.2 mph /  14.8 km/h 45 % 0.00 in /  0 mm
14:45 83.2 °F /  28.4 °C 61.5 °F /  16.4 °C 29.77 in /  1008 hPa NW 4.2 mph /  6.8 km/h 9.2 mph /  14.8 km/h 48 % 0.00 in /  0 mm
14:51 83.0 °F /  28.3 °C 60.7 °F /  15.9 °C 29.77 in /  1008 hPa WNW 2.0 mph /  3.2 km/h 9.0 mph /  14.5 km/h 47 % 0.00 in /  0 mm
14:56 82.8 °F /  28.2 °C 59.9 °F /  15.5 °C 29.77 in /  1008 hPa WNW 2.2 mph /  3.5 km/h 5.8 mph /  9.3 km/h 46 % 0.00 in /  0 mm
15:01 82.6 °F /  28.1 °C 60.9 °F /  16.1 °C 29.77 in /  1008 hPa NW 0.5 mph /  0.8 km/h 3.5 mph /  5.6 km/h 48 % 0.00 in /  0 mm
15:06 82.5 °F /  28.1 °C 60.8 °F /  16 °C 29.77 in /  1008 hPa West 5.0 mph /  8 km/h 7.0 mph /  11.3 km/h 48 % 0.00 in /  0 mm
15:11 82.5 °F /  28.1 °C 60.8 °F /  16 °C 29.77 in /  1008 hPa WNW 2.3 mph /  3.7 km/h 8.1 mph /  13 km/h 48 % 0.00 in /  0 mm
15:16 82.5 °F /  28.1 °C 61.4 °F /  16.3 °C 29.77 in /  1008 hPa SW 5.7 mph /  9.2 km/h 9.2 mph /  14.8 km/h 49 % 0.00 in /  0 mm
15:21 82.6 °F /  28.1 °C 61.5 °F /  16.4 °C 29.76 in /  1007.7 hPa WNW 2.3 mph /  3.7 km/h 5.8 mph /  9.3 km/h 49 % 0.00 in /  0 mm
15:26 82.7 °F /  28.2 °C 62.2 °F /  16.8 °C 29.77 in /  1008 hPa SW 2.3 mph /  3.7 km/h 8.0 mph /  12.9 km/h 50 % 0.00 in /  0 mm
15:31 82.7 °F /  28.2 °C 60.4 °F /  15.8 °C 29.77 in /  1008 hPa NE 2.8 mph /  4.5 km/h 5.8 mph /  9.3 km/h 47 % 0.00 in /  0 mm
15:36 82.7 °F /  28.2 °C 61.6 °F /  16.4 °C 29.76 in /  1007.7 hPa WNW 3.2 mph /  5.1 km/h 7.0 mph /  11.3 km/h 49 % 0.00 in /  0 mm
15:46 82.9 °F /  28.3 °C 61.2 °F /  16.2 °C 29.76 in /  1007.7 hPa WNW 3.2 mph /  5.1 km/h 8.1 mph /  13 km/h 48 % 0.00 in /  0 mm
15:51 82.9 °F /  28.3 °C 61.2 °F /  16.2 °C 29.76 in /  1007.7 hPa WSW 1.2 mph /  1.9 km/h 6.9 mph /  11.1 km/h 48 % 0.00 in /  0 mm
15:56 82.8 °F /  28.2 °C 61.1 °F /  16.2 °C 29.76 in /  1007.7 hPa WNW 2.8 mph /  4.5 km/h 5.8 mph /  9.3 km/h 48 % 0.00 in /  0 mm
16:01 82.7 °F /  28.2 °C 63.3 °F /  17.4 °C 29.76 in /  1007.7 hPa NW 0.6 mph /  1 km/h 1.2 mph /  1.9 km/h 52 % 0.00 in /  0 mm
16:06 82.7 °F /  28.2 °C 63.3 °F /  17.4 °C 29.76 in /  1007.7 hPa North 2.3 mph /  3.7 km/h 8.1 mph /  13 km/h 52 % 0.00 in /  0 mm
16:11 82.6 °F /  28.1 °C 62.6 °F /  17 °C 29.76 in /  1007.7 hPa NW 3.4 mph /  5.5 km/h 10.4 mph /  16.7 km/h 51 % 0.00 in /  0 mm
16:16 82.6 °F /  28.1 °C 62.1 °F /  16.7 °C 29.76 in /  1007.7 hPa NW 2.4 mph /  3.9 km/h 9.2 mph /  14.8 km/h 50 % 0.00 in /  0 mm
16:21 82.5 °F /  28.1 °C 62.0 °F /  16.7 °C 29.76 in /  1007.7 hPa WNW 2.9 mph /  4.7 km/h 3.5 mph /  5.6 km/h 50 % 0.00 in /  0 mm
16:26 82.4 °F /  28 °C 61.9 °F /  16.6 °C 29.76 in /  1007.7 hPa WNW 2.8 mph /  4.5 km/h 10.4 mph /  16.7 km/h 50 % 0.00 in /  0 mm
16:31 82.2 °F /  27.9 °C 63.4 °F /  17.4 °C 29.76 in /  1007.7 hPa WNW 0.4 mph /  0.6 km/h 4.6 mph /  7.4 km/h 53 % 0.00 in /  0 mm
16:36 82.1 °F /  27.8 °C 62.7 °F /  17.1 °C 29.76 in /  1007.7 hPa NW 3.5 mph /  5.6 km/h 4.6 mph /  7.4 km/h 52 % 0.00 in /  0 mm
16:41 82.0 °F /  27.8 °C 61.5 °F /  16.4 °C 29.76 in /  1007.7 hPa West 3.0 mph /  4.8 km/h 5.0 mph /  8 km/h 50 % 0.00 in /  0 mm
16:46 81.8 °F /  27.7 °C 61.9 °F /  16.6 °C 29.76 in /  1007.7 hPa WNW 1.0 mph /  1.6 km/h 6.0 mph /  9.7 km/h 51 % 0.00 in /  0 mm
16:51 81.7 °F /  27.6 °C 62.4 °F /  16.9 °C 29.76 in /  1007.7 hPa WNW 1.7 mph /  2.7 km/h 4.6 mph /  7.4 km/h 52 % 0.00 in /  0 mm
16:57 81.6 °F /  27.6 °C 60.6 °F /  15.9 °C 29.76 in /  1007.7 hPa West 1.9 mph /  3.1 km/h 8.1 mph /  13 km/h 49 % 0.00 in /  0 mm
17:02 81.6 °F /  27.6 °C 60.6 °F /  15.9 °C 29.76 in /  1007.7 hPa West 3.9 mph /  6.3 km/h 8.1 mph /  13 km/h 49 % 0.00 in /  0 mm
17:07 81.4 °F /  27.4 °C 60.4 °F /  15.8 °C 29.76 in /  1007.7 hPa WNW 3.7 mph /  6 km/h 10.4 mph /  16.7 km/h 49 % 0.00 in /  0 mm
17:12 81.2 °F /  27.3 °C 60.8 °F /  16 °C 29.76 in /  1007.7 hPa NW 0.2 mph /  0.3 km/h 3.5 mph /  5.6 km/h 50 % 0.00 in /  0 mm
17:17 81.1 °F /  27.3 °C 61.3 °F /  16.3 °C 29.76 in /  1007.7 hPa WNW 1.9 mph /  3.1 km/h 6.9 mph /  11.1 km/h 51 % 0.00 in /  0 mm
17:22 81.0 °F /  27.2 °C 61.2 °F /  16.2 °C 29.76 in /  1007.7 hPa SW 5.0 mph /  8 km/h 8.1 mph /  13 km/h 51 % 0.00 in /  0 mm
17:27 80.9 °F /  27.2 °C 60.5 °F /  15.8 °C 29.76 in /  1007.7 hPa WSW 1.8 mph /  2.9 km/h 6.9 mph /  11.1 km/h 50 % 0.00 in /  0 mm
17:32 80.9 °F /  27.2 °C 60.5 °F /  15.8 °C 29.76 in /  1007.7 hPa WNW 5.5 mph /  8.9 km/h 10.4 mph /  16.7 km/h 50 % 0.00 in /  0 mm
17:37 80.8 °F /  27.1 °C 61.5 °F /  16.4 °C 29.76 in /  1007.7 hPa SW 1.6 mph /  2.6 km/h 5.0 mph /  8 km/h 52 % 0.00 in /  0 mm
17:42 80.7 °F /  27.1 °C 60.9 °F /  16.1 °C 29.76 in /  1007.7 hPa WNW 2.2 mph /  3.5 km/h 6.9 mph /  11.1 km/h 51 % 0.00 in /  0 mm
17:47 80.6 °F /  27 °C 60.8 °F /  16 °C 29.76 in /  1007.7 hPa WNW 3.2 mph /  5.1 km/h 6.0 mph /  9.7 km/h 51 % 0.00 in /  0 mm
17:52 80.5 °F /  26.9 °C 60.7 °F /  15.9 °C 29.77 in /  1008 hPa WNW 1.8 mph /  2.9 km/h 6.0 mph /  9.7 km/h 51 % 0.00 in /  0 mm
17:57 80.4 °F /  26.9 °C 61.2 °F /  16.2 °C 29.76 in /  1007.7 hPa WNW 1.4 mph /  2.3 km/h 3.5 mph /  5.6 km/h 52 % 0.00 in /  0 mm
18:02 80.2 °F /  26.8 °C 61.0 °F /  16.1 °C 29.77 in /  1008 hPa West 2.1 mph /  3.4 km/h 6.9 mph /  11.1 km/h 52 % 0.00 in /  0 mm
18:07 80.1 °F /  26.7 °C 60.9 °F /  16.1 °C 29.77 in /  1008 hPa NW 2.6 mph /  4.2 km/h 3.5 mph /  5.6 km/h 52 % 0.00 in /  0 mm
18:12 79.9 °F /  26.6 °C 61.2 °F /  16.2 °C 29.77 in /  1008 hPa Calm   2.3 mph /  3.7 km/h 53 % 0.00 in /  0 mm
18:17 79.7 °F /  26.5 °C 61.1 °F /  16.2 °C 29.77 in /  1008 hPa NW 0.2 mph /  0.3 km/h 3.5 mph /  5.6 km/h 53 % 0.00 in /  0 mm
18:22 79.4 °F /  26.3 °C 60.8 °F /  16 °C 29.77 in /  1008 hPa NW 2.2 mph /  3.5 km/h 6.0 mph /  9.7 km/h 53 % 0.00 in /  0 mm
18:28 79.1 °F /  26.2 °C 61.0 °F /  16.1 °C 29.77 in /  1008 hPa NW 0.7 mph /  1.1 km/h 3.5 mph /  5.6 km/h 54 % 0.00 in /  0 mm
18:33 78.9 °F /  26.1 °C 60.8 °F /  16 °C 29.76 in /  1007.7 hPa NW 2.6 mph /  4.2 km/h 5.8 mph /  9.3 km/h 54 % 0.00 in /  0 mm
18:38 78.6 °F /  25.9 °C 60.6 °F /  15.9 °C 29.77 in /  1008 hPa WNW 2.5 mph /  4 km/h 3.5 mph /  5.6 km/h 54 % 0.00 in /  0 mm
18:43 78.4 °F /  25.8 °C 59.9 °F /  15.5 °C 29.77 in /  1008 hPa West 1.0 mph /  1.6 km/h 3.5 mph /  5.6 km/h 53 % 0.00 in /  0 mm
18:48 78.1 °F /  25.6 °C 60.6 °F /  15.9 °C 29.77 in /  1008 hPa West 0.2 mph /  0.3 km/h 3.5 mph /  5.6 km/h 55 % 0.00 in /  0 mm
18:53 77.8 °F /  25.4 °C 59.8 °F /  15.4 °C 29.77 in /  1008 hPa West 2.8 mph /  4.5 km/h 6.0 mph /  9.7 km/h 54 % 0.00 in /  0 mm
18:58 77.6 °F /  25.3 °C 59.6 °F /  15.3 °C 29.77 in /  1008 hPa West 2.2 mph /  3.5 km/h 4.6 mph /  7.4 km/h 54 % 0.00 in /  0 mm
19:08 77.3 °F /  25.2 °C 60.4 °F /  15.8 °C 29.77 in /  1008 hPa WNW 2.1 mph /  3.4 km/h 3.5 mph /  5.6 km/h 56 % 0.00 in /  0 mm
19:13 77.1 °F /  25.1 °C 60.2 °F /  15.7 °C 29.78 in /  1008.4 hPa WNW 0.9 mph /  1.4 km/h 3.5 mph /  5.6 km/h 56 % 0.00 in /  0 mm
19:18 76.9 °F /  24.9 °C 60.0 °F /  15.6 °C 29.78 in /  1008.4 hPa NW 1.8 mph /  2.9 km/h 4.6 mph /  7.4 km/h 56 % 0.00 in /  0 mm
19:23 76.7 °F /  24.8 °C 60.3 °F /  15.7 °C 29.77 in /  1008 hPa NW 1.9 mph /  3.1 km/h 4.6 mph /  7.4 km/h 57 % 0.00 in /  0 mm
19:28 76.5 °F /  24.7 °C 60.6 °F /  15.9 °C 29.78 in /  1008.4 hPa WNW 1.5 mph /  2.4 km/h 3.5 mph /  5.6 km/h 58 % 0.00 in /  0 mm
19:33 76.3 °F /  24.6 °C 60.4 °F /  15.8 °C 29.78 in /  1008.4 hPa NW 0.3 mph /  0.5 km/h 1.2 mph /  1.9 km/h 58 % 0.00 in /  0 mm
19:38 76.1 °F /  24.5 °C 60.7 °F /  15.9 °C 29.78 in /  1008.4 hPa NW 0.1 mph /  0.2 km/h 1.2 mph /  1.9 km/h 59 % 0.00 in /  0 mm
19:43 75.8 °F /  24.3 °C 60.4 °F /  15.8 °C 29.78 in /  1008.4 hPa Calm   1.2 mph /  1.9 km/h 59 % 0.00 in /  0 mm
19:48 75.7 °F /  24.3 °C 60.8 °F /  16 °C 29.79 in /  1008.7 hPa WNW 0.3 mph /  0.5 km/h 1.2 mph /  1.9 km/h 60 % 0.00 in /  0 mm
19:54 75.5 °F /  24.2 °C 60.6 °F /  15.9 °C 29.79 in /  1008.7 hPa Calm   1.2 mph /  1.9 km/h 60 % 0.00 in /  0 mm
19:59 75.2 °F /  24 °C 60.8 °F /  16 °C 29.79 in /  1008.7 hPa WNW 0.1 mph /  0.2 km/h 1.2 mph /  1.9 km/h 61 % 0.00 in /  0 mm
20:04 75.0 °F /  23.9 °C 60.6 °F /  15.9 °C 29.79 in /  1008.7 hPa Calm   1.2 mph /  1.9 km/h 61 % 0.00 in /  0 mm
20:09 74.9 °F /  23.8 °C 60.5 °F /  15.8 °C 29.80 in /  1009 hPa Calm     61 % 0.00 in /  0 mm
20:14 74.7 °F /  23.7 °C 61.3 °F /  16.3 °C 29.80 in /  1009 hPa WNW 0.8 mph /  1.3 km/h 2.3 mph /  3.7 km/h 63 % 0.00 in /  0 mm
20:19 74.4 °F /  23.6 °C 61.0 °F /  16.1 °C 29.80 in /  1009 hPa WNW 0.4 mph /  0.6 km/h 1.2 mph /  1.9 km/h 63 % 0.00 in /  0 mm
20:24 74.3 °F /  23.5 °C 61.3 °F /  16.3 °C 29.80 in /  1009 hPa WNW 0.7 mph /  1.1 km/h 2.3 mph /  3.7 km/h 64 % 0.00 in /  0 mm
20:29 74.1 °F /  23.4 °C 61.1 °F /  16.2 °C 29.80 in /  1009 hPa Calm     64 % 0.00 in /  0 mm
20:34 73.9 °F /  23.3 °C 61.4 °F /  16.3 °C 29.80 in /  1009 hPa WNW 0.6 mph /  1 km/h 1.2 mph /  1.9 km/h 65 % 0.00 in /  0 mm
20:39 73.7 °F /  23.2 °C 61.2 °F /  16.2 °C 29.80 in /  1009 hPa WNW 0.9 mph /  1.4 km/h 1.2 mph /  1.9 km/h 65 % 0.00 in /  0 mm
20:44 73.6 °F /  23.1 °C 61.5 °F /  16.4 °C 29.80 in /  1009 hPa WNW 0.2 mph /  0.3 km/h 2.3 mph /  3.7 km/h 66 % 0.00 in /  0 mm
20:49 73.4 °F /  23 °C 61.3 °F /  16.3 °C 29.80 in /  1009 hPa WNW 0.6 mph /  1 km/h 2.3 mph /  3.7 km/h 66 % 0.00 in /  0 mm
20:54 73.2 °F /  22.9 °C 61.6 °F /  16.4 °C 29.81 in /  1009.4 hPa Calm   3.5 mph /  5.6 km/h 67 % 0.00 in /  0 mm
20:56 73.2 °F /  22.9 °C 61.6 °F /  16.4 °C 29.81 in /  1009.4 hPa WNW 0.3 mph /  0.5 km/h 1.2 mph /  1.9 km/h 67 % 0.00 in /  0 mm
21:01 73.0 °F /  22.8 °C 61.4 °F /  16.3 °C 29.81 in /  1009.4 hPa WNW 0.2 mph /  0.3 km/h 1.2 mph /  1.9 km/h 67 % 0.00 in /  0 mm
21:06 72.9 °F /  22.7 °C 61.7 °F /  16.5 °C 29.80 in /  1009 hPa West 2.2 mph /  3.5 km/h 3.5 mph /  5.6 km/h 68 % 0.00 in /  0 mm
21:11 72.8 °F /  22.7 °C 61.2 °F /  16.2 °C 29.81 in /  1009.4 hPa WNW 0.8 mph /  1.3 km/h 2.0 mph /  3.2 km/h 67 % 0.00 in /  0 mm
21:16 72.6 °F /  22.6 °C 61.0 °F /  16.1 °C 29.81 in /  1009.4 hPa WNW 0.1 mph /  0.2 km/h 1.2 mph /  1.9 km/h 67 % 0.00 in /  0 mm
21:21 72.5 °F /  22.5 °C 60.9 °F /  16.1 °C 29.81 in /  1009.4 hPa West 0.1 mph /  0.2 km/h 2.3 mph /  3.7 km/h 67 % 0.00 in /  0 mm
21:26 72.5 °F /  22.5 °C 61.3 °F /  16.3 °C 29.81 in /  1009.4 hPa NW 0.9 mph /  1.4 km/h 2.0 mph /  3.2 km/h 68 % 0.00 in /  0 mm
21:31 72.4 °F /  22.4 °C 60.8 °F /  16 °C 29.82 in /  1009.7 hPa WNW 0.6 mph /  1 km/h 2.3 mph /  3.7 km/h 67 % 0.00 in /  0 mm
21:36 72.3 °F /  22.4 °C 60.7 °F /  15.9 °C 29.81 in /  1009.4 hPa WNW 0.5 mph /  0.8 km/h 3.5 mph /  5.6 km/h 67 % 0.00 in /  0 mm
21:41 72.2 °F /  22.3 °C 60.6 °F /  15.9 °C 29.81 in /  1009.4 hPa West 1.3 mph /  2.1 km/h 4.0 mph /  6.4 km/h 67 % 0.00 in /  0 mm
21:46 72.2 °F /  22.3 °C 60.6 °F /  15.9 °C 29.81 in /  1009.4 hPa WNW 0.6 mph /  1 km/h 1.2 mph /  1.9 km/h 67 % 0.00 in /  0 mm
21:51 72.1 °F /  22.3 °C 61.0 °F /  16.1 °C 29.81 in /  1009.4 hPa WNW 0.7 mph /  1.1 km/h 1.2 mph /  1.9 km/h 68 % 0.00 in /  0 mm
21:56 72.0 °F /  22.2 °C 61.3 °F /  16.3 °C 29.81 in /  1009.4 hPa Calm     69 % 0.00 in /  0 mm
22:01 72.0 °F /  22.2 °C 61.3 °F /  16.3 °C 29.81 in /  1009.4 hPa WNW 0.1 mph /  0.2 km/h 2.3 mph /  3.7 km/h 69 % 0.00 in /  0 mm
22:06 72.0 °F /  22.2 °C 61.7 °F /  16.5 °C 29.80 in /  1009 hPa WNW 0.2 mph /  0.3 km/h 1.2 mph /  1.9 km/h 70 % 0.00 in /  0 mm
22:11 71.9 °F /  22.2 °C 62.0 °F /  16.7 °C 29.80 in /  1009 hPa Calm   1.2 mph /  1.9 km/h 71 % 0.00 in /  0 mm
22:16 71.8 °F /  22.1 °C 62.3 °F /  16.8 °C 29.80 in /  1009 hPa Calm   1.2 mph /  1.9 km/h 72 % 0.00 in /  0 mm
22:21 71.6 °F /  22 °C 62.1 °F /  16.7 °C 29.81 in /  1009.4 hPa Calm   1.2 mph /  1.9 km/h 72 % 0.00 in /  0 mm
22:26 71.5 °F /  21.9 °C 62.4 °F /  16.9 °C 29.81 in /  1009.4 hPa Calm     73 % 0.00 in /  0 mm
22:31 71.2 °F /  21.8 °C 62.1 °F /  16.7 °C 29.81 in /  1009.4 hPa Calm     73 % 0.00 in /  0 mm
22:36 71.0 °F /  21.7 °C 61.9 °F /  16.6 °C 29.81 in /  1009.4 hPa Calm   1.2 mph /  1.9 km/h 73 % 0.00 in /  0 mm
22:42 70.7 °F /  21.5 °C 62.0 °F /  16.7 °C 29.81 in /  1009.4 hPa Calm     74 % 0.00 in /  0 mm
22:47 70.4 °F /  21.3 °C 61.7 °F /  16.5 °C 29.81 in /  1009.4 hPa Calm     74 % 0.00 in /  0 mm
22:52 70.1 °F /  21.2 °C 61.8 °F /  16.6 °C 29.81 in /  1009.4 hPa Calm     75 % 0.00 in /  0 mm
22:57 69.8 °F /  21 °C 61.5 °F /  16.4 °C 29.81 in /  1009.4 hPa WNW 0.2 mph /  0.3 km/h 1.2 mph /  1.9 km/h 75 % 0.00 in /  0 mm
23:02 69.5 °F /  20.8 °C 61.6 °F /  16.4 °C 29.81 in /  1009.4 hPa Calm     76 % 0.00 in /  0 mm
23:07 69.3 °F /  20.7 °C 61.8 °F /  16.6 °C 29.81 in /  1009.4 hPa Calm     77 % 0.00 in /  0 mm
23:12 69.0 °F /  20.6 °C 61.1 °F /  16.2 °C 29.81 in /  1009.4 hPa WNW 0.2 mph /  0.3 km/h 1.2 mph /  1.9 km/h 76 % 0.00 in /  0 mm
23:17 68.7 °F /  20.4 °C 61.2 °F /  16.2 °C 29.81 in /  1009.4 hPa Calm     77 % 0.00 in /  0 mm
23:22 68.5 °F /  20.3 °C 61.4 °F /  16.3 °C 29.81 in /  1009.4 hPa Calm     78 % 0.00 in /  0 mm
23:27 68.2 °F /  20.1 °C 61.4 °F /  16.3 °C 29.81 in /  1009.4 hPa Calm     79 % 0.00 in /  0 mm
23:32 68.0 °F /  20 °C 61.6 °F /  16.4 °C 29.81 in /  1009.4 hPa Calm     80 % 0.00 in /  0 mm
23:37 67.7 °F /  19.8 °C 61.7 °F /  16.5 °C 29.81 in /  1009.4 hPa WNW 0.1 mph /  0.2 km/h 1.2 mph /  1.9 km/h 81 % 0.00 in /  0 mm
23:42 67.5 °F /  19.7 °C 61.5 °F /  16.4 °C 29.82 in /  1009.7 hPa Calm     81 % 0.00 in /  0 mm
23:47 67.3 °F /  19.6 °C 61.6 °F /  16.4 °C 29.82 in /  1009.7 hPa Calm     82 % 0.00 in /  0 mm
23:52 67.1 °F /  19.5 °C 61.1 °F /  16.2 °C 29.82 in /  1009.7 hPa Calm     81 % 0.00 in /  0 mm
23:57 66.8 °F /  19.3 °C 61.1 °F /  16.2 °C 29.82 in /  1009.7 hPa Calm     82 % 0.00 in /  0 mm
Crab Meadow Weather
Compliments of Weather Underground - 3 mb

Script developed by  Jim McMurry - jmcmurry@mwt.net Adapted for the template by  Wim van der Kuil - Leuven-Template.eu

Extremes: The heaviest hailstones on record, weighing up to 2.25 pounds were reported to have killed 92 people in the Gopalganj district of Bangladesh on April 14, 1986.